createdAt,value
2022-11-25T00:01:42.019Z,3.09
2022-11-25T00:04:11.519Z,2.93
2022-11-25T00:06:40.993Z,2.98
2022-11-25T00:09:14.403Z,3.03
2022-11-25T00:11:44.407Z,2.79
2022-11-25T00:14:17.339Z,2.70
2022-11-25T00:16:48.831Z,2.59
2022-11-25T00:19:18.572Z,2.58
2022-11-25T00:21:47.987Z,2.74
2022-11-25T00:24:17.433Z,2.60
2022-11-25T00:26:46.352Z,2.70
2022-11-25T00:29:16.025Z,2.68
2022-11-25T00:31:45.652Z,2.61
2022-11-25T00:34:15.476Z,2.65
2022-11-25T00:36:45.702Z,2.62
2022-11-25T00:39:18.563Z,2.52
2022-11-25T00:42:06.704Z,2.55
2022-11-25T00:44:36.940Z,2.57
2022-11-25T00:47:17.498Z,2.55
2022-11-25T00:49:54.951Z,2.32
2022-11-25T00:52:27.707Z,2.38
2022-11-25T00:54:57.168Z,2.38
2022-11-25T00:57:26.637Z,2.40
2022-11-25T00:59:56.446Z,2.37
2022-11-25T01:02:26.100Z,2.41
2022-11-25T01:04:55.661Z,2.26
2022-11-25T01:07:25.222Z,2.33
2022-11-25T01:09:54.717Z,2.17
2022-11-25T01:12:24.188Z,2.05
2022-11-25T01:14:53.673Z,2.03
2022-11-25T01:17:23.139Z,2.05
2022-11-25T01:19:52.602Z,2.02
2022-11-25T01:22:21.261Z,2.22
2022-11-25T01:24:50.758Z,2.20
2022-11-25T01:27:20.211Z,2.21
2022-11-25T01:29:49.656Z,2.26
2022-11-25T01:32:19.224Z,2.28
2022-11-25T01:34:48.824Z,2.23
2022-11-25T01:37:18.324Z,2.32
2022-11-25T01:39:47.778Z,2.14
2022-11-25T01:42:18.533Z,1.90
2022-11-25T01:45:35.922Z,1.92
2022-11-25T01:48:41.980Z,1.74
2022-11-25T01:51:28.944Z,1.37
2022-11-25T01:54:05.211Z,1.54
2022-11-25T01:56:46.713Z,1.57
2022-11-25T01:59:15.576Z,1.54
2022-11-25T02:01:45.260Z,1.29
2022-11-25T02:04:18.295Z,1.20
2022-11-25T02:07:01.182Z,1.09
2022-11-25T02:09:32.036Z,1.25
2022-11-25T02:12:02.221Z,0.97
2022-11-25T02:14:31.627Z,1.09
2022-11-25T02:17:02.760Z,1.14
2022-11-25T02:20:05.847Z,1.21
2022-11-25T02:23:02.946Z,1.39
2022-11-25T02:25:37.440Z,1.27
2022-11-25T02:28:25.973Z,1.12
2022-11-25T02:30:55.513Z,1.10
2022-11-25T02:33:26.362Z,1.10
2022-11-25T02:36:11.862Z,1.09
2022-11-25T02:38:49.818Z,1.50
2022-11-25T02:41:37.763Z,1.69
2022-11-25T02:44:07.794Z,1.70
2022-11-25T02:46:37.387Z,1.59
2022-11-25T02:49:09.403Z,1.68
2022-11-25T02:51:44.995Z,1.59
2022-11-25T02:54:16.405Z,1.84
2022-11-25T02:56:45.823Z,1.81
2022-11-25T02:59:14.493Z,1.67
2022-11-25T03:01:43.215Z,1.50
2022-11-25T03:04:12.751Z,1.71
2022-11-25T03:06:42.216Z,1.44
2022-11-25T03:09:10.983Z,1.00
2022-11-25T03:11:59.038Z,1.08
2022-11-25T03:14:27.719Z,1.09
2022-11-25T03:16:56.474Z,0.79
2022-11-25T03:19:25.208Z,0.76
2022-11-25T03:21:54.655Z,1.01
2022-11-25T03:24:24.135Z,1.10
2022-11-25T03:26:53.639Z,1.15
2022-11-25T03:29:23.109Z,1.15
2022-11-25T03:31:52.736Z,1.30
2022-11-25T03:34:22.253Z,1.40
2022-11-25T03:36:51.938Z,1.46
2022-11-25T03:39:20.798Z,1.51
2022-11-25T03:41:50.719Z,1.34
2022-11-25T03:44:20.195Z,1.56
2022-11-25T03:46:49.627Z,1.51
2022-11-25T03:49:19.505Z,1.68
2022-11-25T03:51:49.868Z,0.98
2022-11-25T03:54:19.386Z,0.48
2022-11-25T03:56:48.853Z,0.27
2022-11-25T03:59:17.576Z,0.02
2022-11-25T04:01:47.014Z,-0.07
2022-11-25T04:04:16.689Z,0.05
2022-11-25T04:06:46.284Z,0.29
2022-11-25T04:09:15.153Z,0.18
2022-11-25T04:12:01.614Z,0.39
2022-11-25T04:14:31.787Z,0.29
2022-11-25T04:17:01.332Z,0.57
2022-11-25T04:19:30.817Z,0.44
2022-11-25T04:22:01.301Z,0.53
2022-11-25T04:24:30.257Z,0.38
2022-11-25T04:26:59.676Z,0.08
2022-11-25T04:29:28.469Z,0.07
2022-11-25T04:31:58.021Z,0.29
2022-11-25T04:34:27.479Z,0.25
2022-11-25T04:36:56.161Z,0.12
2022-11-25T04:39:25.624Z,-0.08
2022-11-25T04:42:14.248Z,-0.04
2022-11-25T04:44:55.909Z,-0.23
2022-11-25T04:47:33.602Z,-0.19
2022-11-25T04:50:05.137Z,-0.25
2022-11-25T04:52:34.806Z,-0.02
2022-11-25T04:55:05.426Z,-0.35
2022-11-25T04:57:34.984Z,-0.26
2022-11-25T05:00:06.623Z,-0.07
2022-11-25T05:02:36.777Z,0.02
2022-11-25T05:05:07.496Z,-0.25
2022-11-25T05:07:37.139Z,-0.04
2022-11-25T05:10:08.731Z,-0.21
2022-11-25T05:12:38.545Z,-0.31
2022-11-25T05:15:09.401Z,-0.08
2022-11-25T05:17:40.096Z,0.04
2022-11-25T05:20:11.405Z,0.11
2022-11-25T05:22:41.103Z,-0.09
2022-11-25T05:25:10.949Z,-0.33
2022-11-25T05:27:40.481Z,-0.04
2022-11-25T05:30:11.128Z,-0.05
2022-11-25T05:32:40.823Z,-0.04
2022-11-25T05:35:10.366Z,0.01
2022-11-25T05:37:40.965Z,-0.09
2022-11-25T05:40:11.407Z,-0.27
2022-11-25T05:42:41.036Z,-0.28
2022-11-25T05:45:11.395Z,-0.15
2022-11-25T05:47:41.875Z,-0.27
2022-11-25T05:50:12.424Z,-0.06
2022-11-25T05:52:42.840Z,-0.28
2022-11-25T05:55:13.266Z,-0.32
2022-11-25T05:57:43.706Z,-0.05
2022-11-25T06:00:14.480Z,-0.15
2022-11-25T06:02:44.334Z,-0.07
2022-11-25T06:05:14.089Z,-0.31
2022-11-25T06:07:44.132Z,-0.35
2022-11-25T06:10:13.842Z,-0.28
2022-11-25T06:12:43.892Z,-0.47
2022-11-25T06:15:13.645Z,-0.41
2022-11-25T06:17:43.152Z,-0.41
2022-11-25T06:20:12.811Z,-0.48
2022-11-25T06:22:40.600Z,-0.38
2022-11-25T06:25:11.145Z,-0.75
2022-11-25T06:28:10.712Z,-0.43
2022-11-25T06:30:30.969Z,-0.43
2022-11-25T06:33:00.539Z,-0.53
2022-11-25T06:35:30.070Z,-0.53
2022-11-25T06:38:00.500Z,-0.58
2022-11-25T06:40:30.021Z,-0.27
2022-11-25T06:42:59.544Z,-0.29
2022-11-25T06:45:29.264Z,-0.21
2022-11-25T06:47:58.860Z,-0.35
2022-11-25T06:50:28.343Z,-0.52
2022-11-25T06:52:57.019Z,-1.36
2022-11-25T06:55:24.785Z,-1.12
2022-11-25T06:58:13.638Z,-0.47
2022-11-25T07:00:43.623Z,-0.96
2022-11-25T07:03:13.152Z,-0.89
2022-11-25T07:05:42.763Z,-0.49
2022-11-25T07:08:12.277Z,-0.54
2022-11-25T07:10:41.774Z,-0.54
2022-11-25T07:13:11.274Z,-0.31
2022-11-25T07:15:40.826Z,0.18
2022-11-25T07:18:10.443Z,-0.30
2022-11-25T07:20:40.602Z,0.27
2022-11-25T07:23:10.100Z,0.30
2022-11-25T07:25:39.527Z,-0.09
2022-11-25T07:28:08.182Z,0.07
2022-11-25T07:33:27.224Z,0.47
2022-11-25T07:35:56.837Z,0.59
2022-11-25T07:38:27.340Z,0.50
2022-11-25T07:40:56.831Z,0.44
2022-11-25T07:43:26.322Z,0.60
2022-11-25T07:45:55.806Z,0.85
2022-11-25T07:48:23.636Z,0.47
2022-11-25T07:50:53.231Z,0.49
2022-11-25T07:53:22.745Z,0.86
2022-11-25T07:55:53.142Z,0.58
2022-11-25T07:58:22.704Z,0.73
2022-11-25T08:00:53.145Z,0.56
2022-11-25T08:03:23.664Z,0.93
2022-11-25T08:05:54.427Z,0.46
2022-11-25T08:08:22.270Z,0.70
2022-11-25T08:10:52.755Z,0.81
2022-11-25T08:13:23.720Z,0.83
2022-11-25T08:15:53.641Z,0.52
2022-11-25T08:18:23.358Z,0.81
2022-11-25T08:20:59.405Z,0.61
2022-11-25T08:23:29.888Z,0.77
2022-11-25T08:26:14.488Z,0.76
2022-11-25T08:28:44.580Z,0.42
2022-11-25T08:31:19.180Z,0.68
2022-11-25T08:33:52.075Z,0.82
2022-11-25T08:36:21.961Z,0.77
2022-11-25T08:38:56.537Z,1.19
2022-11-25T08:41:34.934Z,1.20
2022-11-25T08:44:08.285Z,1.08
2022-11-25T08:46:39.738Z,1.07
2022-11-25T08:49:10.009Z,1.14
2022-11-25T08:51:40.132Z,0.97
2022-11-25T08:54:10.043Z,0.92
2022-11-25T08:56:40.678Z,1.00
2022-11-25T08:59:11.020Z,0.86
2022-11-25T09:01:39.784Z,1.23
2022-11-25T09:04:09.373Z,1.14
2022-11-25T09:06:40.010Z,1.21
2022-11-25T09:09:09.499Z,1.75
2022-11-25T09:11:38.307Z,1.76
2022-11-25T09:14:08.092Z,1.76
2022-11-25T09:16:37.919Z,1.66
2022-11-25T09:19:07.542Z,1.25
2022-11-25T09:21:36.189Z,1.52
2022-11-25T09:24:04.966Z,1.53
2022-11-25T09:26:35.947Z,1.82
2022-11-25T09:29:05.573Z,1.86
2022-11-25T09:31:35.060Z,1.57
2022-11-25T09:34:04.515Z,1.84
2022-11-25T09:36:33.940Z,1.78
2022-11-25T09:39:04.112Z,2.09
2022-11-25T09:42:17.972Z,2.24
2022-11-25T09:45:22.817Z,2.36
2022-11-25T09:48:55.156Z,1.83
2022-11-25T09:51:47.680Z,2.10
2022-11-25T09:54:29.599Z,2.16
2022-11-25T09:57:28.951Z,2.16
2022-11-25T10:00:13.859Z,2.01
2022-11-25T10:02:53.939Z,2.39
2022-11-25T10:05:40.229Z,2.01
2022-11-25T10:08:22.920Z,2.15
2022-11-25T10:11:35.488Z,2.40
2022-11-25T10:14:42.994Z,2.51
2022-11-25T10:17:36.259Z,2.59
2022-11-25T10:20:25.807Z,2.73
2022-11-25T10:23:32.627Z,2.65
2022-11-25T10:26:24.553Z,2.46
2022-11-25T10:29:14.920Z,2.72
2022-11-25T10:31:44.943Z,3.01
2022-11-25T10:34:45.833Z,2.88
2022-11-25T10:37:40.902Z,2.99
2022-11-25T10:40:18.276Z,3.00
2022-11-25T10:42:48.053Z,3.21
2022-11-25T10:45:17.549Z,3.29
2022-11-25T10:48:15.056Z,3.21
2022-11-25T10:51:11.184Z,3.25
2022-11-25T10:53:39.839Z,3.18
2022-11-25T10:56:19.324Z,3.50
2022-11-25T10:58:48.375Z,3.82
2022-11-25T11:01:28.333Z,3.73
2022-11-25T11:04:15.221Z,3.58
2022-11-25T11:06:50.047Z,3.65
2022-11-25T11:09:32.484Z,3.91
2022-11-25T11:12:29.167Z,3.76
2022-11-25T11:15:25.264Z,3.77
2022-11-25T11:17:57.092Z,3.98
2022-11-25T11:20:31.182Z,3.76
2022-11-25T11:23:12.379Z,3.70
2022-11-25T11:25:46.119Z,3.88
2022-11-25T11:28:40.842Z,4.25
2022-11-25T11:31:26.428Z,4.12
2022-11-25T11:34:39.435Z,4.40
2022-11-25T11:37:45.670Z,4.13
2022-11-25T11:40:46.665Z,3.87
2022-11-25T11:44:05.069Z,3.87
2022-11-25T11:47:23.479Z,3.83
2022-11-25T11:50:21.996Z,3.82
2022-11-25T11:53:30.379Z,3.79
2022-11-25T11:56:37.275Z,4.44
2022-11-25T11:59:50.719Z,4.22
2022-11-25T12:02:59.650Z,4.41
2022-11-25T12:05:37.415Z,4.54
2022-11-25T12:08:20.649Z,4.69
2022-11-25T12:11:05.173Z,4.54
2022-11-25T12:14:01.367Z,4.50
2022-11-25T12:16:53.471Z,4.47
2022-11-25T12:19:47.260Z,4.36
2022-11-25T12:22:42.636Z,4.62
2022-11-25T12:25:37.031Z,4.51
2022-11-25T12:28:20.362Z,4.66
2022-11-25T12:31:05.388Z,4.69
2022-11-25T12:34:15.882Z,4.55
2022-11-25T12:36:47.871Z,4.78
2022-11-25T12:39:34.285Z,4.61
2022-11-25T12:42:21.907Z,4.60
2022-11-25T12:45:25.596Z,4.32
2022-11-25T12:47:55.163Z,4.29
2022-11-25T12:51:10.931Z,4.43
2022-11-25T12:54:08.785Z,4.54
2022-11-25T12:57:30.689Z,4.00
2022-11-25T13:00:41.463Z,3.93
2022-11-25T13:03:48.923Z,4.17
2022-11-25T13:07:15.769Z,4.10
2022-11-25T13:10:22.091Z,4.38
2022-11-25T13:13:28.005Z,4.20
2022-11-25T13:16:01.401Z,4.26
2022-11-25T13:18:33.828Z,4.38
2022-11-25T13:21:15.657Z,4.42
2022-11-25T13:23:53.365Z,4.31
2022-11-25T13:26:32.957Z,4.15
2022-11-25T13:29:25.119Z,4.28
2022-11-25T13:32:26.530Z,4.17
2022-11-25T13:35:22.397Z,4.15
2022-11-25T13:37:52.792Z,4.20
2022-11-25T13:40:31.029Z,4.18
2022-11-25T13:43:00.824Z,4.21
2022-11-25T13:45:43.721Z,4.33
2022-11-25T13:48:29.467Z,4.35
2022-11-25T13:51:24.404Z,4.17
2022-11-25T13:54:03.706Z,4.10
2022-11-25T13:56:37.337Z,4.13
2022-11-25T13:59:15.653Z,3.66
2022-11-25T14:01:48.020Z,3.68
2022-11-25T14:05:05.877Z,3.82
2022-11-25T14:08:31.287Z,4.08
2022-11-25T14:11:57.864Z,3.83
2022-11-25T14:15:47.996Z,3.97
2022-11-25T14:19:28.501Z,3.71
2022-11-25T14:22:13.549Z,3.70
2022-11-25T14:24:48.396Z,3.77
2022-11-25T14:27:28.720Z,3.42
2022-11-25T14:30:09.650Z,3.57
2022-11-25T14:32:59.128Z,3.26
2022-11-25T14:35:49.608Z,3.13
2022-11-25T14:38:42.502Z,3.52
2022-11-25T14:41:28.835Z,3.37
2022-11-25T14:44:07.323Z,3.46
2022-11-25T14:46:57.137Z,3.21
2022-11-25T14:52:47.233Z,3.59
2022-11-25T14:55:31.236Z,3.33
2022-11-25T14:58:00.841Z,3.16
2022-11-25T15:00:30.367Z,3.04
2022-11-25T15:03:06.626Z,2.94
2022-11-25T15:05:39.666Z,2.75
2022-11-25T15:08:18.027Z,3.10
2022-11-25T15:11:17.069Z,3.18
2022-11-25T15:14:07.599Z,3.18
2022-11-25T15:16:41.493Z,3.19
2022-11-25T15:19:33.415Z,3.23
2022-11-25T15:22:22.388Z,2.63
2022-11-25T15:24:56.487Z,2.92
2022-11-25T15:27:28.898Z,2.95
2022-11-25T15:29:59.124Z,2.88
2022-11-25T15:32:38.524Z,2.95
2022-11-25T15:35:22.198Z,2.85
2022-11-25T15:37:54.480Z,3.15
2022-11-25T15:40:37.026Z,2.97
2022-11-25T15:43:25.924Z,2.97
2022-11-25T15:46:06.287Z,3.21
2022-11-25T15:48:49.986Z,2.96
2022-11-25T15:51:45.023Z,3.12
2022-11-25T15:54:39.665Z,3.01
2022-11-25T15:57:34.981Z,3.10
2022-11-25T16:00:30.970Z,3.02
2022-11-25T16:03:00.030Z,2.82
2022-11-25T16:05:38.296Z,2.87
2022-11-25T16:08:35.298Z,2.58
2022-11-25T16:11:16.789Z,2.67
2022-11-25T16:13:49.176Z,2.73
2022-11-25T16:16:30.262Z,2.61
2022-11-25T16:19:15.070Z,2.61
2022-11-25T16:22:00.630Z,2.75
2022-11-25T16:25:01.748Z,2.85
2022-11-25T16:27:31.586Z,2.54
2022-11-25T16:30:20.114Z,2.70
2022-11-25T16:32:49.696Z,2.96
2022-11-25T16:35:24.779Z,2.62
2022-11-25T16:37:58.738Z,2.67
2022-11-25T16:40:28.004Z,2.96
2022-11-25T16:42:58.527Z,2.81
2022-11-25T16:45:29.263Z,2.95
2022-11-25T16:47:58.831Z,3.19
2022-11-25T16:50:28.420Z,3.15
2022-11-25T16:52:58.991Z,3.15
2022-11-25T16:55:28.504Z,3.18
2022-11-25T16:57:59.449Z,3.08
2022-11-25T17:00:29.341Z,3.11
2022-11-25T17:03:00.425Z,3.27
2022-11-25T17:05:30.978Z,3.09
2022-11-25T17:08:00.680Z,3.32
2022-11-25T17:10:31.287Z,3.50
2022-11-25T17:13:03.298Z,3.25
2022-11-25T17:15:36.975Z,3.09
2022-11-25T17:18:08.599Z,3.13
2022-11-25T17:20:38.275Z,3.24
2022-11-25T17:23:16.290Z,3.26
2022-11-25T17:25:49.622Z,3.37
2022-11-25T17:28:21.730Z,3.22
2022-11-25T17:30:50.330Z,3.25
2022-11-25T17:33:21.148Z,3.04
2022-11-25T17:35:50.798Z,3.18
2022-11-25T17:38:22.684Z,3.24
2022-11-25T17:40:52.282Z,3.36
2022-11-25T17:43:22.045Z,3.46
2022-11-25T17:45:50.001Z,3.65
2022-11-25T17:48:19.830Z,3.55
2022-11-25T17:50:49.407Z,3.47
2022-11-25T17:53:19.016Z,3.57
2022-11-25T17:55:48.584Z,3.81
2022-11-25T17:58:19.438Z,3.55
2022-11-25T18:00:49.188Z,3.36
2022-11-25T18:03:19.633Z,3.43
2022-11-25T18:05:49.155Z,3.56
2022-11-25T18:08:18.686Z,3.55
2022-11-25T18:10:48.383Z,3.22
2022-11-25T18:13:18.230Z,3.46
2022-11-25T18:15:48.560Z,3.35
2022-11-25T18:18:26.697Z,3.69
2022-11-25T18:20:57.176Z,3.52
2022-11-25T18:23:26.787Z,3.66
2022-11-25T18:25:58.926Z,3.99
2022-11-25T18:28:31.353Z,3.74
2022-11-25T18:31:06.270Z,3.61
2022-11-25T18:33:36.118Z,3.75
2022-11-25T18:36:06.414Z,3.74
2022-11-25T18:38:36.039Z,3.62
2022-11-25T18:41:05.848Z,3.64
2022-11-25T18:43:37.940Z,3.45
2022-11-25T18:46:07.762Z,3.53
2022-11-25T18:48:37.411Z,3.57
2022-11-25T18:51:10.258Z,3.66
2022-11-25T18:53:40.785Z,3.85
2022-11-25T18:56:17.660Z,3.60
2022-11-25T18:58:52.133Z,3.59
2022-11-25T19:01:24.388Z,3.66
2022-11-25T19:03:55.592Z,3.86
2022-11-25T19:06:28.172Z,3.86
2022-11-25T19:08:57.743Z,3.74
2022-11-25T19:11:50.100Z,3.68
2022-11-25T19:14:36.044Z,3.70
2022-11-25T19:17:20.145Z,3.82
2022-11-25T19:19:50.954Z,3.63
2022-11-25T19:22:19.090Z,3.96
2022-11-25T19:24:48.925Z,3.83
2022-11-25T19:27:25.980Z,3.78
2022-11-25T19:29:56.460Z,3.92
2022-11-25T19:32:28.951Z,3.94
2022-11-25T19:35:05.661Z,3.77
2022-11-25T19:37:37.507Z,3.80
2022-11-25T19:40:22.391Z,3.75
2022-11-25T19:42:52.228Z,3.93
2022-11-25T19:45:23.235Z,3.86
2022-11-25T19:47:53.770Z,3.81
2022-11-25T19:50:29.966Z,3.68
2022-11-25T19:52:59.549Z,3.79
2022-11-25T19:55:30.181Z,3.77
2022-11-25T19:58:00.077Z,3.91
2022-11-25T20:00:29.540Z,4.00
2022-11-25T20:02:59.030Z,3.88
2022-11-25T20:05:37.711Z,4.24
2022-11-25T20:08:12.292Z,3.83
2022-11-25T20:10:41.845Z,3.76
2022-11-25T20:13:11.532Z,4.02
2022-11-25T20:15:43.594Z,3.87
2022-11-25T20:18:20.740Z,4.06
2022-11-25T20:21:07.474Z,3.93
2022-11-25T20:23:44.252Z,3.95
2022-11-25T20:26:36.641Z,3.96
2022-11-25T20:29:24.549Z,3.95
2022-11-25T20:31:57.199Z,3.70
2022-11-25T20:34:28.434Z,3.84
2022-11-25T20:36:58.003Z,3.59
2022-11-25T20:39:26.634Z,3.93
2022-11-25T20:41:56.174Z,3.66
2022-11-25T20:44:28.591Z,3.52
2022-11-25T20:46:58.103Z,3.62
2022-11-25T20:49:29.287Z,3.72
2022-11-25T20:51:58.984Z,3.87
2022-11-25T20:54:30.273Z,4.12
2022-11-25T20:57:01.327Z,3.99
2022-11-25T20:59:31.377Z,3.81
2022-11-25T21:02:01.111Z,3.80
2022-11-25T21:04:30.749Z,3.68
2022-11-25T21:07:00.998Z,3.96
2022-11-25T21:09:36.101Z,3.78
2022-11-25T21:12:18.606Z,3.64
2022-11-25T21:14:48.941Z,3.89
2022-11-25T21:17:19.546Z,3.81
2022-11-25T21:19:48.967Z,3.83
2022-11-25T21:22:18.633Z,3.61
2022-11-25T21:24:48.247Z,3.89
2022-11-25T21:27:20.596Z,3.91
2022-11-25T21:29:50.085Z,3.71
2022-11-25T21:32:27.269Z,3.64
2022-11-25T21:34:57.912Z,3.85
2022-11-25T21:37:38.059Z,3.73
2022-11-25T21:40:08.323Z,4.04
2022-11-25T21:42:37.874Z,3.97
2022-11-25T21:45:13.692Z,4.05
2022-11-25T21:47:43.272Z,4.00
2022-11-25T21:50:17.123Z,3.92
2022-11-25T21:52:47.097Z,4.01
2022-11-25T21:55:17.999Z,3.77
2022-11-25T21:57:47.643Z,3.97
2022-11-25T22:00:25.692Z,3.90
2022-11-25T22:02:55.799Z,3.77
2022-11-25T22:05:28.321Z,3.93
2022-11-25T22:07:59.149Z,3.61
2022-11-25T22:10:28.733Z,3.47
2022-11-25T22:12:58.542Z,3.54
2022-11-25T22:15:29.280Z,3.52
2022-11-25T22:17:59.650Z,3.56
2022-11-25T22:20:36.106Z,3.85
2022-11-25T22:23:17.486Z,3.71
2022-11-25T22:25:49.295Z,3.67
2022-11-25T22:28:24.987Z,3.54
2022-11-25T22:31:01.720Z,3.82
2022-11-25T22:33:37.575Z,3.81
2022-11-25T22:36:07.421Z,3.41
2022-11-25T22:38:36.967Z,3.41
2022-11-25T22:41:06.474Z,3.42
2022-11-25T22:43:48.596Z,3.40
2022-11-25T22:46:19.353Z,3.13
2022-11-25T22:48:49.664Z,3.30
2022-11-25T22:51:27.024Z,3.61
2022-11-25T22:53:56.537Z,3.61
2022-11-25T22:56:28.128Z,3.47
2022-11-25T22:59:00.338Z,3.30
2022-11-25T23:01:30.299Z,3.40
2022-11-25T23:03:59.865Z,3.50
2022-11-25T23:06:29.501Z,3.26
2022-11-25T23:08:59.055Z,3.43
2022-11-25T23:11:28.566Z,3.25
2022-11-25T23:13:58.170Z,3.66
2022-11-25T23:16:27.757Z,3.28
2022-11-25T23:18:57.270Z,3.33
2022-11-25T23:21:29.833Z,3.34
2022-11-25T23:23:59.337Z,3.42
2022-11-25T23:26:34.782Z,3.50
2022-11-25T23:29:04.747Z,3.08
2022-11-25T23:31:37.525Z,3.08
2022-11-25T23:34:10.091Z,3.30
2022-11-25T23:36:47.620Z,3.37
2022-11-25T23:39:24.732Z,3.16
2022-11-25T23:41:54.881Z,3.09
2022-11-25T23:44:31.704Z,3.19
2022-11-25T23:47:06.171Z,3.18
2022-11-25T23:49:44.225Z,3.28
2022-11-25T23:52:23.193Z,3.39
2022-11-25T23:54:54.012Z,3.34
2022-11-25T23:57:32.949Z,3.28
